createdAt,value
2023-04-19T00:00:32.145Z,46.88
2023-04-19T00:03:01.031Z,42.67
2023-04-19T00:05:30.902Z,37.30
2023-04-19T00:07:59.076Z,40.97
2023-04-19T00:10:27.667Z,45.42
2023-04-19T00:12:55.960Z,33.83
2023-04-19T00:15:24.530Z,39.17
2023-04-19T00:17:52.833Z,37.33
2023-04-19T00:20:21.904Z,36.83
2023-04-19T00:22:51.468Z,38.35
2023-04-19T00:25:19.610Z,32.50
2023-04-19T00:27:48.237Z,34.13
2023-04-19T00:30:16.482Z,33.90
2023-04-19T00:32:44.808Z,35.95
2023-04-19T00:35:13.264Z,31.80
2023-04-19T00:37:41.774Z,32.20
2023-04-19T00:40:13.281Z,31.88
2023-04-19T00:42:41.355Z,34.67
2023-04-19T00:45:10.708Z,28.50
2023-04-19T00:47:39.050Z,32.15
2023-04-19T00:50:08.944Z,30.50
2023-04-19T00:52:37.545Z,31.27
2023-04-19T00:55:07.091Z,31.65
2023-04-19T00:57:38.561Z,31.25
2023-04-19T01:00:10.467Z,32.92
2023-04-19T01:02:39.031Z,31.27
2023-04-19T01:05:08.055Z,35.15
2023-04-19T01:07:36.235Z,29.75
2023-04-19T01:10:04.648Z,36.95
2023-04-19T01:12:32.945Z,33.15
2023-04-19T01:15:05.132Z,29.88
2023-04-19T01:17:34.109Z,27.58
2023-04-19T01:20:03.852Z,32.75
2023-04-19T01:22:34.068Z,29.30
2023-04-19T01:25:02.628Z,22.80
2023-04-19T01:27:30.755Z,34.15
2023-04-19T01:29:59.280Z,26.80
2023-04-19T01:32:28.248Z,26.33
2023-04-19T01:34:57.581Z,28.77
2023-04-19T01:37:26.293Z,23.05
2023-04-19T01:39:55.911Z,27.35
2023-04-19T01:42:23.931Z,25.02
2023-04-19T01:44:52.256Z,26.20
2023-04-19T01:47:21.177Z,29.30
2023-04-19T01:49:49.724Z,25.33
2023-04-19T01:52:18.894Z,24.50
2023-04-19T01:54:47.790Z,31.02
2023-04-19T01:57:19.102Z,31.17
2023-04-19T01:59:48.664Z,31.20
2023-04-19T02:02:17.413Z,28.30
2023-04-19T02:04:45.551Z,24.77
2023-04-19T02:07:13.939Z,28.98
2023-04-19T02:09:42.392Z,28.75
2023-04-19T02:12:11.165Z,26.25
2023-04-19T02:14:40.936Z,25.25
2023-04-19T02:17:10.350Z,23.75
2023-04-19T02:19:40.094Z,29.50
2023-04-19T02:22:08.218Z,23.92
2023-04-19T02:24:36.837Z,26.42
2023-04-19T02:27:05.076Z,31.35
2023-04-19T02:29:34.581Z,31.55
2023-04-19T02:32:06.188Z,27.35
2023-04-19T02:34:34.390Z,23.45
2023-04-19T02:37:03.716Z,32.38
2023-04-19T02:39:32.476Z,24.20
2023-04-19T02:42:01.487Z,27.40
2023-04-19T02:44:30.001Z,36.15
2023-04-19T02:46:58.781Z,25.55
2023-04-19T02:49:28.415Z,32.10
2023-04-19T02:51:56.778Z,35.88
2023-04-19T02:54:25.070Z,32.25
2023-04-19T02:56:53.953Z,29.00
2023-04-19T02:59:22.085Z,26.08
2023-04-19T03:01:50.885Z,28.75
2023-04-19T03:04:19.805Z,30.55
2023-04-19T03:06:49.495Z,29.08
2023-04-19T03:09:18.257Z,32.90
2023-04-19T03:11:46.391Z,26.35
2023-04-19T03:14:15.037Z,29.50
2023-04-19T03:16:43.562Z,27.40
2023-04-19T03:19:11.785Z,26.63
2023-04-19T03:21:49.496Z,27.88
2023-04-19T03:24:19.674Z,26.75
2023-04-19T03:26:52.265Z,28.70
2023-04-19T03:29:25.453Z,27.55
2023-04-19T03:32:06.204Z,36.95
2023-04-19T03:34:34.354Z,33.30
2023-04-19T03:37:04.221Z,41.15
2023-04-19T03:39:34.533Z,50.38
2023-04-19T03:42:06.380Z,28.40
2023-04-19T03:44:53.134Z,29.45
2023-04-19T03:47:21.490Z,38.75
2023-04-19T03:49:51.642Z,32.92
2023-04-19T03:52:21.835Z,30.40
2023-04-19T03:54:50.173Z,29.80
2023-04-19T03:57:31.469Z,28.38
2023-04-19T04:00:01.658Z,28.35
2023-04-19T04:02:32.691Z,32.75
2023-04-19T04:05:01.902Z,29.15
2023-04-19T04:07:31.886Z,32.90
2023-04-19T04:10:00.147Z,28.33
2023-04-19T04:12:28.604Z,37.30
2023-04-19T04:14:57.794Z,37.25
2023-04-19T04:17:26.645Z,28.30
2023-04-19T04:19:55.346Z,26.73
2023-04-19T04:22:25.984Z,24.90
2023-04-19T04:24:58.265Z,29.67
2023-04-19T04:27:36.061Z,28.35
2023-04-19T04:30:06.942Z,27.15
2023-04-19T04:32:36.087Z,24.30
2023-04-19T04:35:06.911Z,23.30
2023-04-19T04:37:43.164Z,20.33
2023-04-19T04:40:13.553Z,26.15
2023-04-19T04:42:42.917Z,27.95
2023-04-19T04:45:12.022Z,29.08
2023-04-19T04:47:43.197Z,24.83
2023-04-19T04:50:12.955Z,27.08
2023-04-19T04:52:41.133Z,19.98
2023-04-19T04:55:15.084Z,24.15
2023-04-19T04:57:45.434Z,21.73
2023-04-19T05:00:23.678Z,19.77
2023-04-19T05:03:29.856Z,24.77
2023-04-19T05:06:04.134Z,26.77
2023-04-19T05:08:33.174Z,22.33
2023-04-19T05:11:16.457Z,20.65
2023-04-19T05:13:45.573Z,21.50
2023-04-19T05:16:13.891Z,28.83
2023-04-19T05:18:45.925Z,35.90
2023-04-19T05:21:14.428Z,22.05
2023-04-19T05:23:43.088Z,14.95
2023-04-19T05:26:15.502Z,17.83
2023-04-19T05:28:46.773Z,18.92
2023-04-19T05:31:23.319Z,20.58
2023-04-19T05:34:06.381Z,14.80
2023-04-19T05:36:34.833Z,14.45
2023-04-19T05:39:03.525Z,14.93
2023-04-19T05:41:32.449Z,18.55
2023-04-19T05:44:02.650Z,11.48
2023-04-19T05:46:31.481Z,12.50
2023-04-19T05:49:00.212Z,12.35
2023-04-19T05:51:28.585Z,14.48
2023-04-19T05:54:12.775Z,16.02
2023-04-19T05:56:43.719Z,12.70
2023-04-19T05:59:14.846Z,18.52
2023-04-19T06:01:43.404Z,24.85
2023-04-19T06:04:12.025Z,12.63
2023-04-19T06:06:40.541Z,11.18
2023-04-19T06:09:09.035Z,13.45
2023-04-19T06:11:46.815Z,16.00
2023-04-19T06:14:20.355Z,10.27
2023-04-19T06:16:48.653Z,13.82
2023-04-19T06:19:17.457Z,10.30
2023-04-19T06:21:46.055Z,10.45
2023-04-19T06:24:14.505Z,10.15
2023-04-19T06:26:43.344Z,9.13
2023-04-19T06:29:11.540Z,10.40
2023-04-19T06:31:41.427Z,7.63
2023-04-19T06:34:11.202Z,9.90
2023-04-19T06:36:39.409Z,7.63
2023-04-19T06:39:08.360Z,6.38
2023-04-19T06:41:36.501Z,9.77
2023-04-19T06:44:04.644Z,6.40
2023-04-19T06:46:32.968Z,6.57
2023-04-19T06:49:02.850Z,10.40
2023-04-19T06:51:31.145Z,8.05
2023-04-19T06:53:59.286Z,7.07
2023-04-19T06:56:45.837Z,11.20
2023-04-19T06:59:14.675Z,6.90
2023-04-19T07:01:43.357Z,9.00
2023-04-19T07:04:14.110Z,8.55
2023-04-19T07:06:42.506Z,6.10
2023-04-19T07:09:10.649Z,7.03
2023-04-19T07:11:38.747Z,5.78
2023-04-19T07:14:07.053Z,7.60
2023-04-19T07:16:35.848Z,5.75
2023-04-19T07:19:04.428Z,6.35
2023-04-19T07:21:35.274Z,5.65
2023-04-19T07:24:03.452Z,6.30
2023-04-19T07:26:33.391Z,5.25
2023-04-19T07:29:02.185Z,5.18
2023-04-19T07:31:30.780Z,5.32
2023-04-19T07:33:59.069Z,7.00
2023-04-19T07:36:28.009Z,5.63
2023-04-19T07:38:58.114Z,6.47
2023-04-19T07:41:26.180Z,8.15
2023-04-19T07:43:54.469Z,3.72
2023-04-19T07:46:22.568Z,4.85
2023-04-19T07:48:50.955Z,4.97
2023-04-19T07:51:19.800Z,4.57
2023-04-19T07:53:49.321Z,6.95
2023-04-19T07:56:20.149Z,6.07
2023-04-19T07:58:56.440Z,6.25
2023-04-19T08:01:33.385Z,7.95
2023-04-19T08:04:02.453Z,8.25
2023-04-19T08:06:32.119Z,6.53
2023-04-19T08:09:00.239Z,5.57
2023-04-19T08:11:30.816Z,5.32
2023-04-19T08:14:09.290Z,5.28
2023-04-19T08:17:21.280Z,6.20
2023-04-19T08:19:31.601Z,5.38
2023-04-19T08:22:00.169Z,6.00
2023-04-19T08:24:28.734Z,6.32
2023-04-19T08:27:00.140Z,5.43
2023-04-19T08:29:28.582Z,7.85
2023-04-19T08:31:56.830Z,10.70
2023-04-19T08:34:25.038Z,8.48
2023-04-19T08:37:03.262Z,10.63
2023-04-19T08:39:34.170Z,8.10
2023-04-19T08:42:13.503Z,8.18
2023-04-19T08:45:23.155Z,7.18
2023-04-19T08:47:59.889Z,8.75
2023-04-19T08:55:34.844Z,5.47
2023-04-19T08:58:09.666Z,7.85
2023-04-19T09:00:41.692Z,10.10
2023-04-19T09:03:10.126Z,7.05
2023-04-19T09:05:38.624Z,12.82
2023-04-19T09:08:24.854Z,7.55
2023-04-19T09:10:55.013Z,7.63
2023-04-19T09:13:25.299Z,9.00
2023-04-19T09:15:54.340Z,5.78
2023-04-19T09:18:22.737Z,10.50
2023-04-19T09:20:51.204Z,9.88
2023-04-19T09:23:20.132Z,6.13
2023-04-19T09:26:19.309Z,5.97
2023-04-19T09:28:57.126Z,9.98
2023-04-19T09:31:47.228Z,6.45
2023-04-19T09:34:16.093Z,6.70
2023-04-19T09:36:44.796Z,8.73
2023-04-19T09:39:15.188Z,14.30
2023-04-19T09:41:52.737Z,5.97
2023-04-19T09:46:54.154Z,4.13
2023-04-19T09:49:33.747Z,7.50
2023-04-19T09:52:15.060Z,7.82
2023-04-19T09:54:44.192Z,6.70
2023-04-19T09:57:12.736Z,6.97
2023-04-19T09:59:42.842Z,7.22
2023-04-19T10:02:13.315Z,6.65
2023-04-19T10:04:59.721Z,11.43
2023-04-19T10:07:33.062Z,8.90
2023-04-19T10:10:16.100Z,8.50
2023-04-19T10:15:24.699Z,7.43
2023-04-19T10:17:53.494Z,6.15
2023-04-19T10:20:26.394Z,6.32
2023-04-19T10:22:55.031Z,6.50
2023-04-19T10:25:30.113Z,5.10
2023-04-19T10:28:03.274Z,7.68
2023-04-19T10:30:33.090Z,10.18
2023-04-19T10:33:04.016Z,5.47
2023-04-19T10:35:37.882Z,6.65
2023-04-19T10:38:08.873Z,7.13
2023-04-19T10:41:00.933Z,7.57
2023-04-19T10:43:30.951Z,5.32
2023-04-19T10:46:08.570Z,5.43
2023-04-19T10:48:44.237Z,11.52
2023-04-19T10:51:15.728Z,9.15
2023-04-19T10:53:49.179Z,7.50
2023-04-19T10:56:19.229Z,12.23
2023-04-19T10:59:21.684Z,8.93
2023-04-19T11:01:57.389Z,6.28
2023-04-19T11:05:04.326Z,7.85
2023-04-19T11:07:41.557Z,11.43
2023-04-19T11:10:11.767Z,10.88
2023-04-19T11:12:44.322Z,7.57
2023-04-19T11:15:12.745Z,9.80
2023-04-19T11:17:42.818Z,4.60
2023-04-19T11:20:14.760Z,8.82
2023-04-19T11:22:44.332Z,5.85
2023-04-19T11:25:14.192Z,8.98
2023-04-19T11:27:44.599Z,7.22
2023-04-19T11:30:15.196Z,5.60
2023-04-19T11:32:48.488Z,6.03
2023-04-19T11:35:20.885Z,5.68
2023-04-19T11:37:49.682Z,4.60
2023-04-19T11:40:19.162Z,6.00
2023-04-19T11:42:48.322Z,6.35
2023-04-19T11:45:30.320Z,7.43
2023-04-19T11:48:00.110Z,8.02
2023-04-19T11:50:38.451Z,7.43
2023-04-19T11:53:17.688Z,10.02
2023-04-19T11:55:47.967Z,6.05
2023-04-19T11:58:32.442Z,6.35
2023-04-19T12:01:06.865Z,5.30
2023-04-19T12:03:36.169Z,9.88
2023-04-19T12:06:09.325Z,7.90
2023-04-19T12:08:39.097Z,5.85
2023-04-19T12:11:07.997Z,5.05
2023-04-19T12:13:37.926Z,17.02
2023-04-19T12:16:06.504Z,6.75
2023-04-19T12:18:46.125Z,8.60
2023-04-19T12:21:27.652Z,8.48
2023-04-19T12:23:59.504Z,12.98
2023-04-19T12:26:28.554Z,9.10
2023-04-19T12:28:56.887Z,7.40
2023-04-19T12:31:26.280Z,6.28
2023-04-19T12:33:54.923Z,7.10
2023-04-19T12:36:23.793Z,6.53
2023-04-19T12:38:53.416Z,5.20
2023-04-19T12:41:21.693Z,6.10
2023-04-19T12:43:50.534Z,8.75
2023-04-19T12:46:19.131Z,8.85
2023-04-19T12:48:47.568Z,8.00
2023-04-19T12:51:15.882Z,9.48
2023-04-19T12:53:49.380Z,11.45
2023-04-19T12:56:19.756Z,9.68
2023-04-19T12:58:48.283Z,10.35
2023-04-19T13:01:17.282Z,6.95
2023-04-19T13:03:45.859Z,9.05
2023-04-19T13:06:22.395Z,13.27
2023-04-19T13:08:51.372Z,9.50
2023-04-19T13:11:25.097Z,12.50
2023-04-19T13:13:56.788Z,11.88
2023-04-19T13:16:25.585Z,9.07
2023-04-19T13:18:55.301Z,14.30
2023-04-19T13:21:24.562Z,8.07
2023-04-19T13:23:55.132Z,7.57
2023-04-19T13:26:29.084Z,9.43
2023-04-19T13:28:58.642Z,10.70
2023-04-19T13:31:27.206Z,11.95
2023-04-19T13:33:56.306Z,9.63
2023-04-19T13:36:24.984Z,15.77
2023-04-19T13:38:53.455Z,16.02
2023-04-19T13:41:22.807Z,15.80
2023-04-19T13:43:52.815Z,10.52
2023-04-19T13:46:21.477Z,10.20
2023-04-19T13:48:49.842Z,15.18
2023-04-19T13:51:18.481Z,23.13
2023-04-19T13:53:47.068Z,13.27
2023-04-19T13:56:15.870Z,6.03
2023-04-19T13:58:44.140Z,14.13
2023-04-19T14:01:13.949Z,8.27
2023-04-19T14:03:42.689Z,6.00
2023-04-19T14:06:12.114Z,8.45
2023-04-19T14:08:40.345Z,6.45
2023-04-19T14:11:08.535Z,9.35
2023-04-19T14:13:37.244Z,7.43
2023-04-19T14:16:05.866Z,7.68
2023-04-19T14:18:35.811Z,6.32
2023-04-19T14:21:04.201Z,7.25
2023-04-19T14:23:32.528Z,6.53
2023-04-19T14:26:01.094Z,7.00
2023-04-19T14:28:29.506Z,8.23
2023-04-19T14:30:58.589Z,10.88
2023-04-19T14:33:27.513Z,8.25
2023-04-19T14:35:57.752Z,5.22
2023-04-19T14:38:26.245Z,5.07
2023-04-19T14:40:54.623Z,8.80
2023-04-19T14:43:23.069Z,3.72
2023-04-19T14:45:51.265Z,4.72
2023-04-19T14:48:22.121Z,5.47
2023-04-19T14:50:51.436Z,5.00
2023-04-19T14:53:21.343Z,6.13
2023-04-19T14:55:50.033Z,6.22
2023-04-19T14:58:18.309Z,8.88
2023-04-19T15:00:46.688Z,6.00
2023-04-19T15:03:15.022Z,6.68
2023-04-19T15:05:44.202Z,6.55
2023-04-19T15:08:26.874Z,6.90
2023-04-19T15:10:59.943Z,6.53
2023-04-19T15:13:29.844Z,7.75
2023-04-19T15:15:59.509Z,5.78
2023-04-19T15:18:29.330Z,8.40
2023-04-19T15:20:57.936Z,9.38
2023-04-19T15:23:26.564Z,30.63
2023-04-19T15:25:54.871Z,21.00
2023-04-19T15:28:25.380Z,22.95
2023-04-19T15:31:00.233Z,22.80
2023-04-19T15:33:28.979Z,58.42
2023-04-19T15:35:58.528Z,6.63
2023-04-19T15:38:28.361Z,5.43
2023-04-19T15:40:57.408Z,6.20
2023-04-19T15:43:27.093Z,8.45
2023-04-19T15:45:55.696Z,18.45
2023-04-19T15:48:23.901Z,161.25
2023-04-19T15:50:52.268Z,15.90
2023-04-19T15:53:20.859Z,9.00
2023-04-19T15:55:49.504Z,6.55
2023-04-19T15:58:17.801Z,7.50
2023-04-19T16:00:47.308Z,5.90
2023-04-19T16:03:16.634Z,5.57
2023-04-19T16:05:45.707Z,5.68
2023-04-19T16:08:17.732Z,5.57
2023-04-19T16:10:46.251Z,6.45
2023-04-19T16:13:15.666Z,3.80
2023-04-19T16:15:45.462Z,5.03
2023-04-19T16:18:15.193Z,5.47
2023-04-19T16:20:43.644Z,5.15
2023-04-19T16:23:14.648Z,4.53
2023-04-19T16:25:42.929Z,6.07
2023-04-19T16:28:11.417Z,5.65
2023-04-19T16:30:40.065Z,5.13
2023-04-19T16:33:08.356Z,6.90
2023-04-19T16:35:37.956Z,5.78
2023-04-19T16:38:07.107Z,5.88
2023-04-19T16:40:35.398Z,5.53
2023-04-19T16:43:04.821Z,6.28
2023-04-19T16:45:33.452Z,5.70
2023-04-19T16:48:02.242Z,6.60
2023-04-19T16:50:31.118Z,10.63
2023-04-19T16:53:01.038Z,8.98
2023-04-19T16:55:29.734Z,6.50
2023-04-19T16:57:58.109Z,9.57
2023-04-19T17:00:27.129Z,8.50
2023-04-19T17:03:20.453Z,7.95
2023-04-19T17:05:49.361Z,8.73
2023-04-19T17:08:19.153Z,7.88
2023-04-19T17:10:47.499Z,8.10
2023-04-19T17:13:15.830Z,10.75
2023-04-19T17:15:44.306Z,8.52
2023-04-19T17:18:17.101Z,10.25
2023-04-19T17:20:45.830Z,9.35
2023-04-19T17:23:14.828Z,8.57
2023-04-19T17:25:44.707Z,7.65
2023-04-19T17:28:13.244Z,8.05
2023-04-19T17:30:45.671Z,12.30
2023-04-19T17:33:13.829Z,8.48
2023-04-19T17:35:44.216Z,10.45
2023-04-19T17:38:12.699Z,13.10
2023-04-19T17:40:41.451Z,12.70
2023-04-19T17:43:11.665Z,6.82
2023-04-19T17:45:40.554Z,9.27
2023-04-19T17:48:09.061Z,9.43
2023-04-19T17:50:37.411Z,7.38
2023-04-19T17:53:05.694Z,7.68
2023-04-19T17:55:34.083Z,8.88
2023-04-19T17:58:03.104Z,6.93
2023-04-19T18:00:33.028Z,9.45
2023-04-19T18:03:01.459Z,7.20
2023-04-19T18:05:29.764Z,8.45
2023-04-19T18:07:57.983Z,8.27
2023-04-19T18:10:26.675Z,5.72
2023-04-19T18:12:56.035Z,6.60
2023-04-19T18:15:24.449Z,7.30
2023-04-19T18:17:54.619Z,11.70
2023-04-19T18:20:22.845Z,9.88
2023-04-19T18:22:52.022Z,7.63
2023-04-19T18:25:21.789Z,9.65
2023-04-19T18:27:50.711Z,13.80
2023-04-19T18:30:19.108Z,8.93
2023-04-19T18:32:47.818Z,14.50
2023-04-19T18:35:17.487Z,16.23
2023-04-19T18:37:45.658Z,11.48
2023-04-19T18:40:14.766Z,7.25
2023-04-19T18:42:42.856Z,11.45
2023-04-19T18:45:12.045Z,9.30
2023-04-19T18:47:40.408Z,10.95
2023-04-19T18:50:09.938Z,11.00
2023-04-19T18:52:39.867Z,19.50
2023-04-19T18:55:10.448Z,32.22
2023-04-19T18:57:39.054Z,15.07
2023-04-19T19:00:11.361Z,10.10
2023-04-19T19:02:41.277Z,11.50
2023-04-19T19:05:13.908Z,8.57
2023-04-19T19:07:45.294Z,8.20
2023-04-19T19:10:19.186Z,9.85
2023-04-19T19:12:50.879Z,11.13
2023-04-19T19:15:19.297Z,9.35
2023-04-19T19:17:49.811Z,12.98
2023-04-19T19:20:20.211Z,13.68
2023-04-19T19:22:51.328Z,13.75
2023-04-19T19:25:20.213Z,9.82
2023-04-19T19:30:21.803Z,8.77
2023-04-19T19:32:50.995Z,12.35
2023-04-19T19:35:19.886Z,14.07
2023-04-19T19:37:49.304Z,13.18
2023-04-19T19:40:22.403Z,12.77
2023-04-19T19:42:50.966Z,13.45
2023-04-19T19:45:19.660Z,12.32
2023-04-19T19:47:49.935Z,14.05
2023-04-19T19:52:53.171Z,12.98
2023-04-19T19:55:21.446Z,12.88
2023-04-19T19:58:21.063Z,17.63
2023-04-19T20:00:47.370Z,13.30
2023-04-19T20:03:32.860Z,12.65
2023-04-19T20:08:44.462Z,13.55
2023-04-19T20:11:13.529Z,16.58
2023-04-19T20:13:41.673Z,12.15
2023-04-19T20:16:10.150Z,14.95
2023-04-19T20:18:39.323Z,15.10
2023-04-19T20:21:07.843Z,24.05
2023-04-19T20:23:40.816Z,14.57
2023-04-19T20:26:09.240Z,18.95
2023-04-19T20:28:38.406Z,41.28
2023-04-19T20:31:07.398Z,18.70
2023-04-19T20:33:35.585Z,20.85
2023-04-19T20:36:04.372Z,23.05
2023-04-19T20:38:34.647Z,18.90
2023-04-19T20:41:04.424Z,18.20
2023-04-19T20:43:33.071Z,19.67
2023-04-19T20:46:01.558Z,15.63
2023-04-19T20:48:29.834Z,18.27
2023-04-19T20:50:57.923Z,16.67
2023-04-19T20:53:26.424Z,17.20
2023-04-19T20:55:55.104Z,15.90
2023-04-19T20:58:24.548Z,15.00
2023-04-19T21:00:53.198Z,16.50
2023-04-19T21:03:21.438Z,15.23
2023-04-19T21:05:49.676Z,21.63
2023-04-19T21:08:19.104Z,21.13
2023-04-19T21:10:47.264Z,22.63
2023-04-19T21:13:15.534Z,17.63
2023-04-19T21:15:46.589Z,20.77
2023-04-19T21:18:15.232Z,21.08
2023-04-19T21:20:46.233Z,13.32
2023-04-19T21:23:16.652Z,12.10
2023-04-19T21:25:45.321Z,16.77
2023-04-19T21:28:13.477Z,15.00
2023-04-19T21:30:43.483Z,12.25
2023-04-19T21:33:13.230Z,13.18
2023-04-19T21:35:41.537Z,12.90
2023-04-19T21:38:09.852Z,11.13
2023-04-19T21:40:37.802Z,12.10
2023-04-19T21:43:06.016Z,14.18
2023-04-19T21:45:34.566Z,11.27
2023-04-19T21:48:03.173Z,14.00
2023-04-19T21:50:33.190Z,12.20
2023-04-19T21:53:01.533Z,12.85
2023-04-19T21:55:29.735Z,13.32
2023-04-19T21:57:58.231Z,13.70
2023-04-19T22:00:26.788Z,13.88
2023-04-19T22:02:55.074Z,13.60
2023-04-19T22:05:23.325Z,13.88
2023-04-19T22:07:52.914Z,17.15
2023-04-19T22:10:22.686Z,15.23
2023-04-19T22:12:58.357Z,12.50
2023-04-19T22:15:28.090Z,14.80
2023-04-19T22:17:57.373Z,13.15
2023-04-19T22:20:27.258Z,11.02
2023-04-19T22:22:57.222Z,11.88
2023-04-19T22:25:25.316Z,14.68
2023-04-19T22:27:54.076Z,13.65
2023-04-19T22:30:22.457Z,13.65
2023-04-19T22:32:51.077Z,12.75
2023-04-19T22:35:22.054Z,14.18
2023-04-19T22:37:51.302Z,16.35
2023-04-19T22:40:20.920Z,14.63
2023-04-19T22:42:49.079Z,17.05
2023-04-19T22:45:17.594Z,15.70
2023-04-19T22:47:46.150Z,14.38
2023-04-19T22:50:14.632Z,12.98
2023-04-19T22:52:42.853Z,16.85
2023-04-19T22:55:11.670Z,13.30
2023-04-19T22:57:41.531Z,14.07
2023-04-19T23:00:11.631Z,14.38
2023-04-19T23:02:40.401Z,13.73
2023-04-19T23:05:09.455Z,11.68
2023-04-19T23:07:39.410Z,14.77
2023-04-19T23:10:10.358Z,13.30
2023-04-19T23:12:38.996Z,16.70
2023-04-19T23:15:11.151Z,15.00
2023-04-19T23:17:40.692Z,14.38
2023-04-19T23:20:11.740Z,15.25
2023-04-19T23:22:40.708Z,17.35
2023-04-19T23:25:09.964Z,15.05
2023-04-19T23:27:38.464Z,17.15
2023-04-19T23:30:10.718Z,18.00
2023-04-19T23:32:38.927Z,14.27
2023-04-19T23:35:07.569Z,14.13
2023-04-19T23:37:36.725Z,15.55
2023-04-19T23:40:06.316Z,16.65
2023-04-19T23:42:34.645Z,16.65
2023-04-19T23:45:10.686Z,18.90
2023-04-19T23:47:40.640Z,19.67
2023-04-19T23:50:09.796Z,18.13
2023-04-19T23:52:38.235Z,19.27
2023-04-19T23:55:07.116Z,20.13
2023-04-19T23:57:35.633Z,21.00
